Time;durP1;ratioP1;P1;durP2;ratioP2;P2;SDS_P1;SDS_P2;PMS_P1;PMS_P2;Temp;Humidity;BMP_temperature;BMP_pressure;BME280_temperature;BME280_humidity;BME280_pressure;Samples;Min_cycle;Max_cycle;Signal;HPM_P1;HPM_P2
2023/05/26 00:01:46;;;;;;;8.50;6.73;;;;;;;;;;5086386;28;20577;-61
2023/05/26 00:04:17;;;;;;;7.60;6.83;;;;;;;;;;5084307;28;20690;-61
2023/05/26 00:06:46;;;;;;;12.53;7.37;;;;;;;;;;5083338;28;20619;-60
2023/05/26 00:09:14;;;;;;;8.03;6.40;;;;;;;;;;5087266;28;20726;-60
2023/05/26 00:11:41;;;;;;;9.30;6.80;;;;;;;;;;5071088;28;20262;-60
2023/05/26 00:14:10;;;;;;;9.73;6.47;;;;;;;;;;5083217;28;20204;-61
2023/05/26 00:16:37;;;;;;;8.30;6.77;;;;;;;;;;5087955;28;20196;-60
2023/05/26 00:19:07;;;;;;;7.93;6.47;;;;;;;;;;5085655;28;20637;-62
2023/05/26 00:21:35;;;;;;;8.20;6.33;;;;;;;;;;5080962;28;20201;-62
2023/05/26 00:24:03;;;;;;;8.53;6.80;;;;;;;;;;5086816;28;20205;-61
2023/05/26 00:26:30;;;;;;;7.13;6.23;;;;;;;;;;5084341;28;20251;-60
2023/05/26 00:28:57;;;;;;;8.77;6.20;;;;;;;;;;5069464;28;20320;-59
2023/05/26 00:31:25;;;;;;;9.07;6.20;;;;;;;;;;5090984;28;20201;-59
2023/05/26 00:33:52;;;;;;;9.60;6.37;;;;;;;;;;5081105;28;20205;-60
2023/05/26 00:36:19;;;;;;;10.10;6.80;;;;;;;;;;5076833;28;20250;-62
2023/05/26 00:38:46;;;;;;;9.20;6.37;;;;;;;;;;5087584;28;20581;-62
2023/05/26 00:41:14;;;;;;;7.13;6.37;;;;;;;;;;5080741;28;20204;-60
2023/05/26 00:43:41;;;;;;;7.50;5.83;;;;;;;;;;5089234;28;20221;-60
2023/05/26 00:46:08;;;;;;;7.63;6.13;;;;;;;;;;5088761;28;20205;-60
2023/05/26 00:48:35;;;;;;;7.30;6.07;;;;;;;;;;5077996;28;20225;-59
2023/05/26 00:51:03;;;;;;;8.60;5.97;;;;;;;;;;5087914;28;20204;-58
2023/05/26 00:53:30;;;;;;;7.33;5.83;;;;;;;;;;5081445;28;20659;-61
2023/05/26 00:55:57;;;;;;;8.50;6.30;;;;;;;;;;5086174;28;20572;-58
2023/05/26 00:58:25;;;;;;;9.93;6.10;;;;;;;;;;5080990;28;20810;-59
2023/05/26 01:00:52;;;;;;;8.43;5.70;;;;;;;;;;5081634;28;20266;-60
2023/05/26 01:03:19;;;;;;;9.47;6.40;;;;;;;;;;5085215;28;20671;-62
2023/05/26 01:05:47;;;;;;;8.33;6.73;;;;;;;;;;5083659;28;20232;-62
2023/05/26 01:08:14;;;;;;;8.50;6.00;;;;;;;;;;5079284;28;20225;-61
2023/05/26 01:10:41;;;;;;;8.40;6.10;;;;;;;;;;5080732;28;20743;-60
2023/05/26 01:13:29;;;;;;;8.80;5.97;;;;;;;;;;5089565;28;20214;-60
2023/05/26 01:16:03;;;;;;;7.60;6.20;;;;;;;;;;5082498;28;20205;-61
2023/05/26 01:18:42;;;;;;;9.80;6.40;;;;;;;;;;5092391;28;20931;-60
2023/05/26 01:21:12;;;;;;;7.70;5.97;;;;;;;;;;5082609;28;20343;-60
2023/05/26 01:23:39;;;;;;;7.70;6.13;;;;;;;;;;5082193;28;20208;-61
2023/05/26 01:26:10;;;;;;;8.10;6.47;;;;;;;;;;5087089;28;20584;-60
2023/05/26 01:28:38;;;;;;;9.13;6.53;;;;;;;;;;5081923;28;20290;-60
2023/05/26 01:31:05;;;;;;;8.37;6.17;;;;;;;;;;5082622;28;20194;-59
2023/05/26 01:33:35;;;;;;;7.37;6.37;;;;;;;;;;5075764;28;20204;-63
2023/05/26 01:36:03;;;;;;;8.33;6.67;;;;;;;;;;5082771;28;20194;-61
2023/05/26 01:38:30;;;;;;;9.70;6.00;;;;;;;;;;5079252;28;20241;-63
2023/05/26 01:41:04;;;;;;;9.07;6.43;;;;;;;;;;5080513;28;20197;-61
2023/05/26 01:43:35;;;;;;;8.97;7.20;;;;;;;;;;5074778;28;20220;-60
2023/05/26 01:46:06;;;;;;;10.37;6.77;;;;;;;;;;5073646;28;20209;-61
2023/05/26 01:48:35;;;;;;;8.23;6.43;;;;;;;;;;5063817;28;20240;-61
2023/05/26 01:51:03;;;;;;;10.10;6.60;;;;;;;;;;5078709;28;20197;-61
2023/05/26 01:53:32;;;;;;;11.17;7.07;;;;;;;;;;5076703;28;20192;-61
2023/05/26 01:56:01;;;;;;;10.70;6.83;;;;;;;;;;5079042;28;20220;-61
2023/05/26 01:58:29;;;;;;;12.50;6.60;;;;;;;;;;5076602;28;20670;-61
2023/05/26 02:00:58;;;;;;;9.03;6.37;;;;;;;;;;5082186;28;20666;-60
2023/05/26 02:03:25;;;;;;;8.07;6.57;;;;;;;;;;5075185;28;20208;-61
2023/05/26 02:05:53;;;;;;;8.80;6.90;;;;;;;;;;5076902;28;20240;-61
2023/05/26 02:08:21;;;;;;;8.37;6.30;;;;;;;;;;5076567;28;20281;-61
2023/05/26 02:10:48;;;;;;;10.03;6.63;;;;;;;;;;5073762;28;20228;-60
2023/05/26 02:13:16;;;;;;;10.33;6.93;;;;;;;;;;5086344;28;20201;-61
2023/05/26 02:15:43;;;;;;;7.57;6.70;;;;;;;;;;5079271;28;20201;-60
2023/05/26 02:18:11;;;;;;;7.47;6.47;;;;;;;;;;5081278;28;20553;-59
2023/05/26 02:20:39;;;;;;;9.13;6.93;;;;;;;;;;5078416;28;20440;-61
2023/05/26 02:23:06;;;;;;;9.43;6.60;;;;;;;;;;5082411;28;20205;-59
2023/05/26 02:25:33;;;;;;;9.93;7.87;;;;;;;;;;5058172;28;20209;-59
2023/05/26 02:28:00;;;;;;;10.63;7.53;;;;;;;;;;5073224;28;20298;-60
2023/05/26 02:30:28;;;;;;;8.23;6.60;;;;;;;;;;5079407;28;20220;-58
2023/05/26 02:32:55;;;;;;;9.37;6.90;;;;;;;;;;5084358;28;20207;-59
2023/05/26 02:35:22;;;;;;;9.60;7.20;;;;;;;;;;5074901;28;20204;-61
2023/05/26 02:37:50;;;;;;;8.97;7.23;;;;;;;;;;5076414;28;20205;-60
2023/05/26 02:40:17;;;;;;;8.93;7.70;;;;;;;;;;5077462;28;20221;-61
2023/05/26 02:42:44;;;;;;;10.30;7.63;;;;;;;;;;5083856;28;20659;-59
2023/05/26 02:45:12;;;;;;;11.73;7.83;;;;;;;;;;5087019;28;20213;-61
2023/05/26 02:47:39;;;;;;;12.43;8.00;;;;;;;;;;5087191;28;20220;-62
2023/05/26 02:50:07;;;;;;;10.53;7.63;;;;;;;;;;5081482;28;20252;-62
2023/05/26 02:52:34;;;;;;;9.97;7.03;;;;;;;;;;5079912;28;20251;-61
2023/05/26 02:55:02;;;;;;;12.03;7.70;;;;;;;;;;5089297;28;20284;-60
2023/05/26 02:57:29;;;;;;;11.10;7.30;;;;;;;;;;5078033;28;20201;-60
2023/05/26 02:59:57;;;;;;;11.20;8.17;;;;;;;;;;5068357;28;20248;-62
2023/05/26 03:02:25;;;;;;;9.50;7.63;;;;;;;;;;5080132;28;20236;-61
2023/05/26 03:04:53;;;;;;;11.93;7.60;;;;;;;;;;5083217;28;20209;-61
2023/05/26 03:07:20;;;;;;;11.20;8.00;;;;;;;;;;5077612;28;20247;-59
2023/05/26 03:09:47;;;;;;;11.03;7.70;;;;;;;;;;5075586;28;23249;-60
2023/05/26 03:12:15;;;;;;;9.73;8.03;;;;;;;;;;5081713;28;20200;-59
2023/05/26 03:14:43;;;;;;;13.03;7.70;;;;;;;;;;5080883;28;20677;-61
2023/05/26 03:17:10;;;;;;;9.93;7.87;;;;;;;;;;5079539;28;20200;-62
2023/05/26 03:19:38;;;;;;;10.13;7.80;;;;;;;;;;5082219;28;20768;-60
2023/05/26 03:22:05;;;;;;;10.90;7.30;;;;;;;;;;5083778;28;20209;-61
2023/05/26 03:24:53;;;;;;;9.60;7.27;;;;;;;;;;5067527;28;20287;-61
2023/05/26 03:27:26;;;;;;;10.23;6.93;;;;;;;;;;5082031;28;20208;-58
2023/05/26 03:29:53;;;;;;;9.47;6.97;;;;;;;;;;5074387;28;20221;-59
2023/05/26 03:32:20;;;;;;;9.37;7.40;;;;;;;;;;5078269;28;20208;-60
2023/05/26 03:34:47;;;;;;;9.40;7.03;;;;;;;;;;5088124;28;20234;-59
2023/05/26 03:37:15;;;;;;;9.97;7.70;;;;;;;;;;5083186;28;20682;-58
2023/05/26 03:39:42;;;;;;;10.53;7.27;;;;;;;;;;5076480;28;20232;-59
2023/05/26 03:42:10;;;;;;;8.33;7.50;;;;;;;;;;5078894;28;20205;-61
2023/05/26 03:44:37;;;;;;;9.80;7.07;;;;;;;;;;5077331;28;20246;-60
2023/05/26 03:47:05;;;;;;;8.70;7.77;;;;;;;;;;5074884;28;20734;-58
2023/05/26 03:49:32;;;;;;;11.40;7.50;;;;;;;;;;5060878;28;20587;-62
2023/05/26 03:52:00;;;;;;;10.10;8.10;;;;;;;;;;5078407;28;20235;-62
2023/05/26 03:54:27;;;;;;;9.37;7.70;;;;;;;;;;5082761;28;20208;-58
2023/05/26 03:56:55;;;;;;;10.53;7.50;;;;;;;;;;5079316;28;20251;-60
2023/05/26 03:59:22;;;;;;;10.90;8.03;;;;;;;;;;5085343;28;20232;-62
2023/05/26 04:01:50;;;;;;;12.70;7.73;;;;;;;;;;5079219;28;20250;-59
2023/05/26 04:04:17;;;;;;;10.00;7.80;;;;;;;;;;5085407;28;20674;-58
2023/05/26 04:06:44;;;;;;;8.57;7.40;;;;;;;;;;5074327;28;20681;-58
2023/05/26 04:09:12;;;;;;;9.73;7.57;;;;;;;;;;5073887;28;20236;-58
2023/05/26 04:11:39;;;;;;;11.30;8.33;;;;;;;;;;5078893;28;20197;-59
2023/05/26 04:14:07;;;;;;;8.37;7.47;;;;;;;;;;5084620;28;20227;-59
2023/05/26 04:16:34;;;;;;;11.20;7.47;;;;;;;;;;5088457;28;20203;-60
2023/05/26 04:19:01;;;;;;;11.90;7.90;;;;;;;;;;5082831;28;20244;-61
2023/05/26 04:21:30;;;;;;;11.33;8.43;;;;;;;;;;5084181;28;20714;-59
2023/05/26 04:23:58;;;;;;;11.80;9.23;;;;;;;;;;5079307;28;20205;-60
2023/05/26 04:26:33;;;;;;;10.97;8.53;;;;;;;;;;5080523;28;20231;-59
2023/05/26 04:29:01;;;;;;;11.30;8.00;;;;;;;;;;5082619;28;20236;-60
2023/05/26 04:31:31;;;;;;;11.10;7.93;;;;;;;;;;5079543;28;20574;-61
2023/05/26 04:33:58;;;;;;;9.83;7.73;;;;;;;;;;5081185;28;20288;-60
2023/05/26 04:36:26;;;;;;;12.40;8.17;;;;;;;;;;5076566;28;20202;-61
2023/05/26 04:38:54;;;;;;;12.77;8.67;;;;;;;;;;5080225;28;20318;-61
2023/05/26 04:41:22;;;;;;;11.00;8.37;;;;;;;;;;5092805;28;20208;-59
2023/05/26 04:43:49;;;;;;;10.90;8.93;;;;;;;;;;5081977;28;20208;-59
2023/05/26 04:46:16;;;;;;;10.00;8.50;;;;;;;;;;5070283;28;20665;-60
2023/05/26 04:48:44;;;;;;;11.60;8.23;;;;;;;;;;5079012;28;20236;-60
2023/05/26 04:51:11;;;;;;;14.80;8.50;;;;;;;;;;5075256;28;20773;-60
2023/05/26 04:53:38;;;;;;;12.27;8.43;;;;;;;;;;5068396;28;20202;-59
2023/05/26 04:56:06;;;;;;;14.17;8.67;;;;;;;;;;5083636;28;20201;-62
2023/05/26 04:58:33;;;;;;;10.30;8.27;;;;;;;;;;5082180;28;20209;-60
2023/05/26 05:01:02;;;;;;;12.43;8.60;;;;;;;;;;5081821;28;20295;-61
2023/05/26 05:03:34;;;;;;;9.70;8.10;;;;;;;;;;5071168;28;20273;-61
2023/05/26 05:06:02;;;;;;;11.87;8.30;;;;;;;;;;5076813;28;20210;-60
2023/05/26 05:08:30;;;;;;;10.00;8.33;;;;;;;;;;5086899;28;20261;-59
2023/05/26 05:10:57;;;;;;;10.63;8.27;;;;;;;;;;5074243;28;20297;-60
2023/05/26 05:13:24;;;;;;;11.80;8.60;;;;;;;;;;5083123;28;20254;-60
2023/05/26 05:15:51;;;;;;;11.90;8.87;;;;;;;;;;5072840;28;20196;-61
2023/05/26 05:18:19;;;;;;;14.57;8.40;;;;;;;;;;5082361;28;20201;-62
2023/05/26 05:20:46;;;;;;;10.50;8.43;;;;;;;;;;5067905;28;20213;-59
2023/05/26 05:23:14;;;;;;;9.20;8.13;;;;;;;;;;5085827;28;20210;-61
2023/05/26 05:25:42;;;;;;;12.63;7.80;;;;;;;;;;5082410;28;20204;-60
2023/05/26 05:28:12;;;;;;;8.57;7.28;;;;;;;;;;5089803;28;20221;-63
2023/05/26 05:30:39;;;;;;;8.25;7.38;;;;;;;;;;5082167;28;20689;-60
2023/05/26 05:33:10;;;;;;;7.75;6.72;;;;;;;;;;5080573;28;20288;-63
2023/05/26 05:35:38;;;;;;;8.68;7.10;;;;;;;;;;5080338;28;20197;-60
2023/05/26 05:38:05;;;;;;;7.05;6.35;;;;;;;;;;5079515;28;20737;-62
2023/05/26 05:40:33;;;;;;;7.82;6.50;;;;;;;;;;5070511;28;20224;-62
2023/05/26 05:43:01;;;;;;;9.82;6.82;;;;;;;;;;5081728;28;20209;-62
2023/05/26 05:45:28;;;;;;;7.53;6.70;;;;;;;;;;5072233;28;20254;-61
2023/05/26 05:47:55;;;;;;;11.02;6.63;;;;;;;;;;5084127;28;20211;-60
2023/05/26 05:50:23;;;;;;;7.20;6.47;;;;;;;;;;5063321;28;20270;-61
2023/05/26 05:52:50;;;;;;;6.70;6.00;;;;;;;;;;5085200;28;20222;-60
2023/05/26 05:55:17;;;;;;;6.80;6.03;;;;;;;;;;5090892;28;20205;-61
2023/05/26 05:57:45;;;;;;;7.00;6.25;;;;;;;;;;5082580;28;20253;-61
2023/05/26 06:00:12;;;;;;;8.38;5.75;;;;;;;;;;5079739;28;20244;-61
2023/05/26 06:02:40;;;;;;;7.35;5.75;;;;;;;;;;5060404;28;20211;-60
2023/05/26 06:05:07;;;;;;;8.18;6.88;;;;;;;;;;5080550;28;20283;-61
2023/05/26 06:07:35;;;;;;;6.05;5.45;;;;;;;;;;5079004;28;20222;-61
2023/05/26 06:10:02;;;;;;;8.10;5.90;;;;;;;;;;5087356;28;20764;-62
2023/05/26 06:12:29;;;;;;;6.30;5.63;;;;;;;;;;5080079;28;20204;-62
2023/05/26 06:14:57;;;;;;;7.35;5.72;;;;;;;;;;5084814;28;20201;-62
2023/05/26 06:17:24;;;;;;;8.25;5.97;;;;;;;;;;5068030;28;20197;-60
2023/05/26 06:19:51;;;;;;;7.35;5.97;;;;;;;;;;5084027;28;20235;-61
2023/05/26 06:22:19;;;;;;;7.65;5.75;;;;;;;;;;5084458;28;20201;-60
2023/05/26 06:24:46;;;;;;;7.45;6.35;;;;;;;;;;5084409;28;20201;-60
2023/05/26 06:27:13;;;;;;;6.63;5.93;;;;;;;;;;5083154;28;20709;-59
2023/05/26 06:29:43;;;;;;;7.53;6.15;;;;;;;;;;5083119;28;20320;-60
2023/05/26 06:32:10;;;;;;;8.95;6.68;;;;;;;;;;5076561;28;20202;-61
2023/05/26 06:34:37;;;;;;;8.68;6.68;;;;;;;;;;5083251;28;20204;-60
2023/05/26 06:37:05;;;;;;;9.80;6.47;;;;;;;;;;5073913;28;20197;-62
2023/05/26 06:39:32;;;;;;;7.63;5.97;;;;;;;;;;5082188;28;20641;-63
2023/05/26 06:42:00;;;;;;;7.57;6.10;;;;;;;;;;5079338;28;20257;-62
2023/05/26 06:44:27;;;;;;;8.88;6.88;;;;;;;;;;5078794;28;20398;-59
2023/05/26 06:46:54;;;;;;;10.13;6.95;;;;;;;;;;5079201;28;20219;-61
2023/05/26 06:49:22;;;;;;;7.90;6.40;;;;;;;;;;5078355;28;20243;-62
2023/05/26 06:51:49;;;;;;;8.50;6.95;;;;;;;;;;5077650;28;20205;-60
2023/05/26 06:54:16;;;;;;;8.35;6.55;;;;;;;;;;5062095;28;20590;-59
2023/05/26 06:56:43;;;;;;;10.25;6.70;;;;;;;;;;5074160;28;20549;-61
2023/05/26 06:59:11;;;;;;;10.30;7.75;;;;;;;;;;5076084;28;20233;-60
2023/05/26 07:01:38;;;;;;;12.43;7.07;;;;;;;;;;5072688;28;20247;-61
2023/05/26 07:04:05;;;;;;;8.75;7.10;;;;;;;;;;5078246;28;20885;-60
2023/05/26 07:06:33;;;;;;;9.63;6.40;;;;;;;;;;5073885;28;20209;-58
2023/05/26 07:09:13;;;;;;;8.00;6.60;;;;;;;;;;5071024;28;20701;-61
2023/05/26 07:11:40;;;;;;;11.27;6.72;;;;;;;;;;5072125;28;20251;-61
2023/05/26 07:14:10;;;;;;;10.15;7.03;;;;;;;;;;5061988;28;20212;-61
2023/05/26 07:16:37;;;;;;;8.27;6.55;;;;;;;;;;5077557;28;20201;-59
2023/05/26 07:19:05;;;;;;;10.10;6.63;;;;;;;;;;5077938;28;20274;-61
2023/05/26 07:21:32;;;;;;;9.75;6.28;;;;;;;;;;5081318;28;20205;-60
2023/05/26 07:23:59;;;;;;;9.38;7.63;;;;;;;;;;5082067;28;20313;-61
2023/05/26 07:26:27;;;;;;;8.65;7.03;;;;;;;;;;5075257;28;20209;-62
2023/05/26 07:28:54;;;;;;;11.75;8.50;;;;;;;;;;5079969;28;20324;-61
2023/05/26 07:31:24;;;;;;;9.25;6.43;;;;;;;;;;5065482;28;20571;-61
2023/05/26 07:33:52;;;;;;;10.38;6.68;;;;;;;;;;5082529;28;20304;-62
2023/05/26 07:36:19;;;;;;;9.07;6.72;;;;;;;;;;5075075;28;20205;-59
2023/05/26 07:38:46;;;;;;;12.60;6.32;;;;;;;;;;5073998;28;20274;-61
2023/05/26 07:41:14;;;;;;;9.23;6.22;;;;;;;;;;5058168;28;20226;-61
2023/05/26 07:43:41;;;;;;;8.70;6.35;;;;;;;;;;5061461;28;20215;-61
2023/05/26 07:46:09;;;;;;;8.73;5.97;;;;;;;;;;5084624;28;20212;-61
2023/05/26 07:48:36;;;;;;;9.75;6.25;;;;;;;;;;5078703;28;20210;-60
2023/05/26 07:51:04;;;;;;;8.48;5.85;;;;;;;;;;5079959;28;20196;-60
2023/05/26 07:53:31;;;;;;;8.43;6.18;;;;;;;;;;5090166;28;20229;-61
2023/05/26 07:55:59;;;;;;;9.15;6.10;;;;;;;;;;5091175;28;20609;-60
2023/05/26 07:58:26;;;;;;;6.53;5.10;;;;;;;;;;5080546;28;20561;-61
2023/05/26 08:00:53;;;;;;;7.88;5.57;;;;;;;;;;5071261;28;20638;-60
2023/05/26 08:03:21;;;;;;;9.48;5.78;;;;;;;;;;5092132;28;20192;-61
2023/05/26 08:05:48;;;;;;;6.78;5.47;;;;;;;;;;5089154;28;20607;-59
2023/05/26 08:08:16;;;;;;;9.38;6.05;;;;;;;;;;5077524;28;20608;-61
2023/05/26 08:10:43;;;;;;;8.18;5.82;;;;;;;;;;5091666;28;20220;-63
2023/05/26 08:13:11;;;;;;;6.57;5.38;;;;;;;;;;5085492;28;20721;-62
2023/05/26 08:15:38;;;;;;;8.63;5.90;;;;;;;;;;5082414;28;20242;-62
2023/05/26 08:18:06;;;;;;;7.10;5.55;;;;;;;;;;5084623;28;20197;-60
2023/05/26 08:20:33;;;;;;;6.78;5.18;;;;;;;;;;5081474;28;20217;-60
2023/05/26 08:23:00;;;;;;;7.25;5.40;;;;;;;;;;5085029;28;20208;-62
2023/05/26 08:25:28;;;;;;;8.48;5.80;;;;;;;;;;5089226;28;20569;-60
2023/05/26 08:27:55;;;;;;;7.85;5.20;;;;;;;;;;5090238;28;20201;-62
2023/05/26 08:30:22;;;;;;;7.82;5.82;;;;;;;;;;5068853;28;20282;-61
2023/05/26 08:32:50;;;;;;;6.97;5.72;;;;;;;;;;5089822;28;20652;-62
2023/05/26 08:35:17;;;;;;;8.02;6.00;;;;;;;;;;5089835;28;20207;-61
2023/05/26 08:37:45;;;;;;;8.85;6.25;;;;;;;;;;5091145;28;20205;-64
2023/05/26 08:40:14;;;;;;;9.85;6.53;;;;;;;;;;5087649;28;20241;-60
2023/05/26 08:42:45;;;;;;;7.70;5.85;;;;;;;;;;5083978;28;20245;-60
2023/05/26 08:45:13;;;;;;;6.53;5.65;;;;;;;;;;5080355;28;20220;-61
2023/05/26 08:47:42;;;;;;;9.02;6.05;;;;;;;;;;5065231;28;20208;-62
2023/05/26 08:50:10;;;;;;;7.03;6.00;;;;;;;;;;5084764;28;20710;-60
2023/05/26 08:52:38;;;;;;;11.88;6.85;;;;;;;;;;5082543;28;20193;-62
2023/05/26 08:55:17;;;;;;;9.07;6.80;;;;;;;;;;5082835;28;20751;-61
2023/05/26 08:57:44;;;;;;;9.75;7.22;;;;;;;;;;5080870;28;20208;-62
2023/05/26 09:00:12;;;;;;;8.90;6.40;;;;;;;;;;5078593;28;20248;-61
2023/05/26 09:02:40;;;;;;;10.35;6.60;;;;;;;;;;5085366;28;20197;-62
2023/05/26 09:05:07;;;;;;;10.15;6.60;;;;;;;;;;5079226;28;20618;-59
2023/05/26 09:07:35;;;;;;;7.88;6.25;;;;;;;;;;5068454;28;20243;-63
2023/05/26 09:10:21;;;;;;;10.55;6.47;;;;;;;;;;5090257;28;20715;-62
2023/05/26 09:12:48;;;;;;;10.02;6.80;;;;;;;;;;5074698;28;20210;-62
2023/05/26 09:15:20;;;;;;;9.57;6.57;;;;;;;;;;5075630;28;20694;-60
2023/05/26 09:17:48;;;;;;;7.32;5.75;;;;;;;;;;5090097;28;20204;-61
2023/05/26 09:20:15;;;;;;;8.57;5.53;;;;;;;;;;5082817;28;20773;-61
2023/05/26 09:22:45;;;;;;;9.82;5.57;;;;;;;;;;5080826;28;20287;-60
2023/05/26 09:25:16;;;;;;;7.13;5.30;;;;;;;;;;5090568;28;20208;-61
2023/05/26 09:27:47;;;;;;;7.05;5.50;;;;;;;;;;5086370;28;20206;-62
2023/05/26 09:30:14;;;;;;;8.27;5.32;;;;;;;;;;5093261;28;20232;-63
2023/05/26 09:32:42;;;;;;;7.95;5.63;;;;;;;;;;5091741;28;20282;-61
2023/05/26 09:35:10;;;;;;;7.85;5.28;;;;;;;;;;5091409;28;20204;-62
2023/05/26 09:37:37;;;;;;;7.30;5.55;;;;;;;;;;5092392;28;20236;-62
2023/05/26 09:40:08;;;;;;;6.82;5.30;;;;;;;;;;5090642;28;20618;-61
2023/05/26 09:42:36;;;;;;;8.18;5.53;;;;;;;;;;5080978;28;20216;-61
2023/05/26 09:45:04;;;;;;;6.45;5.40;;;;;;;;;;5090197;28;20571;-62
2023/05/26 09:47:33;;;;;;;6.38;5.43;;;;;;;;;;5093118;28;20201;-59
2023/05/26 09:50:07;;;;;;;10.40;5.63;;;;;;;;;;5096915;28;20736;-60
2023/05/26 09:52:35;;;;;;;5.97;5.30;;;;;;;;;;5097498;28;20199;-60
2023/05/26 09:55:04;;;;;;;10.88;6.97;;;;;;;;;;5077695;28;20279;-61
2023/05/26 09:57:33;;;;;;;9.60;7.82;;;;;;;;;;5079161;28;20261;-61
2023/05/26 10:00:02;;;;;;;10.38;7.88;;;;;;;;;;5076648;28;20278;-61
2023/05/26 10:02:29;;;;;;;14.43;9.38;;;;;;;;;;5075022;28;20220;-62
2023/05/26 10:04:57;;;;;;;11.75;8.02;;;;;;;;;;5094132;28;20219;-62
2023/05/26 10:07:26;;;;;;;11.27;8.20;;;;;;;;;;5089742;28;20933;-60
2023/05/26 10:09:57;;;;;;;12.27;8.32;;;;;;;;;;5087895;28;20225;-60
2023/05/26 10:12:28;;;;;;;13.70;10.55;;;;;;;;;;5088111;28;20194;-61
2023/05/26 10:14:56;;;;;;;13.25;9.75;;;;;;;;;;5075782;28;20296;-60
2023/05/26 10:17:24;;;;;;;10.05;8.48;;;;;;;;;;5095145;28;20208;-60
2023/05/26 10:19:57;;;;;;;12.40;9.40;;;;;;;;;;5080429;28;20845;-62
2023/05/26 10:22:27;;;;;;;15.05;10.00;;;;;;;;;;5089934;28;20201;-61
2023/05/26 10:25:03;;;;;;;11.50;8.52;;;;;;;;;;5088610;28;20720;-61
2023/05/26 10:27:41;;;;;;;9.98;8.20;;;;;;;;;;5071313;28;20260;-63
2023/05/26 10:30:11;;;;;;;12.90;8.20;;;;;;;;;;5089433;28;20277;-60
2023/05/26 10:32:49;;;;;;;10.80;7.45;;;;;;;;;;5093318;28;20200;-61
2023/05/26 10:35:21;;;;;;;14.50;8.05;;;;;;;;;;5090928;28;20234;-60
2023/05/26 10:37:57;;;;;;;10.13;8.02;;;;;;;;;;5089232;28;20200;-61
2023/05/26 10:40:33;;;;;;;11.63;7.60;;;;;;;;;;5073692;28;20635;-60
2023/05/26 10:43:01;;;;;;;9.93;7.65;;;;;;;;;;5091883;28;20220;-62
2023/05/26 10:45:33;;;;;;;10.82;7.72;;;;;;;;;;5088994;28;20250;-63
2023/05/26 10:48:06;;;;;;;10.00;7.90;;;;;;;;;;5090491;28;20650;-61
2023/05/26 10:51:09;;;;;;;11.23;7.72;;;;;;;;;;5084816;28;20577;-60
2023/05/26 10:53:44;;;;;;;12.55;8.40;;;;;;;;;;5010364;28;20199;-60
2023/05/26 10:56:13;;;;;;;13.23;9.20;;;;;;;;;;5068353;28;20204;-61
2023/05/26 10:58:50;;;;;;;12.60;8.00;;;;;;;;;;5097804;28;20216;-60
2023/05/26 11:01:27;;;;;;;9.20;7.57;;;;;;;;;;5071221;28;20201;-62
2023/05/26 11:04:08;;;;;;;12.38;8.77;;;;;;;;;;5084049;28;20196;-62
2023/05/26 11:06:46;;;;;;;10.68;7.75;;;;;;;;;;5093763;28;20204;-62
2023/05/26 11:09:14;;;;;;;12.63;8.40;;;;;;;;;;5095399;28;20311;-62
2023/05/26 11:11:51;;;;;;;12.55;8.25;;;;;;;;;;5088838;28;20201;-61
2023/05/26 11:14:36;;;;;;;14.25;9.68;;;;;;;;;;5086853;28;21199;-62
2023/05/26 11:17:04;;;;;;;8.85;6.65;;;;;;;;;;5068079;28;20197;-62
2023/05/26 11:19:33;;;;;;;10.48;6.85;;;;;;;;;;5087588;28;20307;-60
2023/05/26 11:22:01;;;;;;;9.75;6.72;;;;;;;;;;5083392;28;20205;-62
2023/05/26 11:24:28;;;;;;;9.35;7.43;;;;;;;;;;5093238;28;21331;-60
2023/05/26 11:26:55;;;;;;;11.05;6.78;;;;;;;;;;5091891;28;20201;-60
2023/05/26 11:29:23;;;;;;;8.82;7.05;;;;;;;;;;5081894;28;21195;-63
2023/05/26 11:31:51;;;;;;;12.18;6.97;;;;;;;;;;5077382;28;20198;-61
2023/05/26 11:34:19;;;;;;;8.35;6.80;;;;;;;;;;5084984;28;20205;-60
2023/05/26 11:36:51;;;;;;;10.68;7.15;;;;;;;;;;5088815;28;20198;-60
2023/05/26 11:39:19;;;;;;;10.25;6.35;;;;;;;;;;5081669;28;20909;-60
2023/05/26 11:41:46;;;;;;;10.77;7.15;;;;;;;;;;5076107;28;20208;-61
2023/05/26 11:44:15;;;;;;;9.85;7.20;;;;;;;;;;5061352;28;20215;-62
2023/05/26 11:46:43;;;;;;;9.23;6.97;;;;;;;;;;5078754;28;20284;-60
2023/05/26 11:49:14;;;;;;;10.82;6.80;;;;;;;;;;5078208;28;20259;-62
2023/05/26 11:51:48;;;;;;;8.13;7.00;;;;;;;;;;5077343;28;20222;-61
2023/05/26 11:54:16;;;;;;;8.70;7.05;;;;;;;;;;5091242;28;20201;-60
2023/05/26 11:56:44;;;;;;;8.95;6.30;;;;;;;;;;5080395;28;20216;-63
2023/05/26 11:59:18;;;;;;;7.43;6.43;;;;;;;;;;5078793;28;20264;-62
2023/05/26 12:01:46;;;;;;;10.82;6.82;;;;;;;;;;5078465;28;20200;-61
2023/05/26 12:04:14;;;;;;;7.80;6.43;;;;;;;;;;5072587;28;20301;-59
2023/05/26 12:06:45;;;;;;;9.43;6.78;;;;;;;;;;5066914;28;20906;-60
2023/05/26 12:09:22;;;;;;;9.35;6.80;;;;;;;;;;5060919;28;20225;-61
2023/05/26 12:11:53;;;;;;;8.20;6.32;;;;;;;;;;5090773;28;20220;-61
2023/05/26 12:14:22;;;;;;;11.00;6.50;;;;;;;;;;5089383;28;20200;-60
2023/05/26 12:16:55;;;;;;;9.18;6.78;;;;;;;;;;5087636;28;20197;-62
2023/05/26 12:19:22;;;;;;;9.38;6.43;;;;;;;;;;5081037;28;20233;-62
2023/05/26 12:21:52;;;;;;;9.00;6.22;;;;;;;;;;5071146;28;20219;-61
2023/05/26 12:24:33;;;;;;;8.75;5.95;;;;;;;;;;5088378;28;20212;-61
2023/05/26 12:27:10;;;;;;;8.23;6.63;;;;;;;;;;5089069;28;20646;-61
2023/05/26 12:29:41;;;;;;;9.20;6.78;;;;;;;;;;5092048;28;20236;-62
2023/05/26 12:32:10;;;;;;;7.78;6.10;;;;;;;;;;5079565;28;20219;-59
2023/05/26 12:34:38;;;;;;;9.00;5.95;;;;;;;;;;5067204;28;20212;-62
2023/05/26 12:37:06;;;;;;;7.63;6.40;;;;;;;;;;5065478;28;20201;-62
2023/05/26 12:39:33;;;;;;;8.85;6.00;;;;;;;;;;5084746;28;20221;-61
2023/05/26 12:42:01;;;;;;;9.25;6.20;;;;;;;;;;5082525;28;20208;-61
2023/05/26 12:44:29;;;;;;;8.88;6.10;;;;;;;;;;5087265;28;20209;-62
2023/05/26 12:46:56;;;;;;;10.55;6.28;;;;;;;;;;5090227;28;20215;-61
2023/05/26 12:49:24;;;;;;;11.00;7.13;;;;;;;;;;5090022;28;20228;-63
2023/05/26 12:51:52;;;;;;;8.10;6.15;;;;;;;;;;5089921;28;20231;-61
2023/05/26 12:54:19;;;;;;;8.52;6.13;;;;;;;;;;5087859;28;20205;-61
2023/05/26 12:56:47;;;;;;;6.50;5.45;;;;;;;;;;5090815;28;20704;-60
2023/05/26 12:59:15;;;;;;;6.53;5.65;;;;;;;;;;5089578;28;20232;-61
2023/05/26 13:01:47;;;;;;;8.80;6.70;;;;;;;;;;5083071;28;20216;-62
2023/05/26 13:04:16;;;;;;;7.57;6.43;;;;;;;;;;5080718;28;20216;-60
2023/05/26 13:06:46;;;;;;;8.80;6.20;;;;;;;;;;5078783;28;20242;-61
2023/05/26 13:09:17;;;;;;;6.20;5.15;;;;;;;;;;5081465;28;20698;-63
2023/05/26 13:11:45;;;;;;;10.68;6.20;;;;;;;;;;5077551;28;20254;-61
2023/05/26 13:14:12;;;;;;;6.85;5.63;;;;;;;;;;5086346;28;20239;-59
2023/05/26 13:16:39;;;;;;;9.10;6.60;;;;;;;;;;5078865;28;20196;-60
2023/05/26 13:19:07;;;;;;;8.73;5.82;;;;;;;;;;5073533;28;20651;-62
2023/05/26 13:21:35;;;;;;;8.18;5.78;;;;;;;;;;5071933;28;20274;-61
2023/05/26 13:24:03;;;;;;;10.90;6.78;;;;;;;;;;5063879;28;20201;-61
2023/05/26 13:26:30;;;;;;;8.98;5.45;;;;;;;;;;5069850;28;20215;-60
2023/05/26 13:28:58;;;;;;;9.18;6.63;;;;;;;;;;5068288;28;20226;-61
2023/05/26 13:31:25;;;;;;;7.07;5.15;;;;;;;;;;5070601;28;20251;-61
2023/05/26 13:33:53;;;;;;;6.88;5.00;;;;;;;;;;5071981;28;20292;-61
2023/05/26 13:36:24;;;;;;;9.50;5.75;;;;;;;;;;5069855;28;20204;-61
2023/05/26 13:38:52;;;;;;;9.15;5.63;;;;;;;;;;5064059;28;20396;-63
2023/05/26 13:41:19;;;;;;;9.20;6.00;;;;;;;;;;5073111;28;20251;-61
2023/05/26 13:43:46;;;;;;;6.90;5.40;;;;;;;;;;5077674;28;20215;-60
2023/05/26 13:46:14;;;;;;;7.40;5.78;;;;;;;;;;5077903;28;20219;-62
2023/05/26 13:48:41;;;;;;;7.50;5.45;;;;;;;;;;5082706;28;20228;-60
2023/05/26 13:51:09;;;;;;;5.95;5.35;;;;;;;;;;5092061;28;20223;-61
2023/05/26 13:53:37;;;;;;;7.25;5.60;;;;;;;;;;5078307;28;20233;-61
2023/05/26 13:56:05;;;;;;;6.90;5.60;;;;;;;;;;5081842;28;20291;-60
2023/05/26 13:58:51;;;;;;;7.65;5.20;;;;;;;;;;5082187;28;20239;-61
2023/05/26 14:01:20;;;;;;;7.47;5.30;;;;;;;;;;5078289;28;20697;-62
2023/05/26 14:04:03;;;;;;;7.40;5.50;;;;;;;;;;5077554;28;20201;-60
2023/05/26 14:06:34;;;;;;;6.40;5.25;;;;;;;;;;5078015;28;20258;-61
2023/05/26 14:09:03;;;;;;;7.97;5.38;;;;;;;;;;5061068;28;20232;-61
2023/05/26 14:11:31;;;;;;;6.07;5.28;;;;;;;;;;5079324;28;20217;-62
2023/05/26 14:14:01;;;;;;;9.23;6.18;;;;;;;;;;5080345;28;20614;-60
2023/05/26 14:16:28;;;;;;;9.32;5.85;;;;;;;;;;5086347;28;20209;-61
2023/05/26 14:18:56;;;;;;;11.23;5.97;;;;;;;;;;5075225;28;20347;-60
2023/05/26 14:21:39;;;;;;;8.65;5.32;;;;;;;;;;5065306;28;20205;-61
2023/05/26 14:24:26;;;;;;;7.95;5.55;;;;;;;;;;5063834;28;20670;-60
2023/05/26 14:26:55;;;;;;;8.07;5.28;;;;;;;;;;5073747;28;20209;-62
2023/05/26 14:29:22;;;;;;;7.22;5.43;;;;;;;;;;5085428;28;20542;-61
2023/05/26 14:31:50;;;;;;;8.70;5.47;;;;;;;;;;5082468;28;20225;-60
2023/05/26 14:34:18;;;;;;;6.07;4.60;;;;;;;;;;5056281;28;20197;-63
2023/05/26 14:36:45;;;;;;;8.88;5.25;;;;;;;;;;5066547;28;20292;-63
2023/05/26 14:39:13;;;;;;;7.13;4.88;;;;;;;;;;5052336;28;20561;-61
2023/05/26 14:41:41;;;;;;;7.53;5.13;;;;;;;;;;5074495;28;20270;-62
2023/05/26 14:44:09;;;;;;;9.02;5.28;;;;;;;;;;5068890;28;20270;-60
2023/05/26 14:46:38;;;;;;;7.18;5.30;;;;;;;;;;5067159;28;20208;-63
2023/05/26 14:49:08;;;;;;;7.72;5.15;;;;;;;;;;5081885;28;20224;-62